This is the latest recevied weather packets stored in our database for station/object SQ8AQX-13. If no packets are shown the sender has not sent any weather packets the latest 10 day(s).
| Time | Temp. | Humidity | Pressure | Rain* | Wind** | Luminosity | Snow |
|---|---|---|---|---|---|---|---|
| 1777560163 | 15.56° C | 25% | 1029.1 hPa | - | - | - | - |
| 1777559563 | 14.44° C | 28% | 1029.2 hPa | - | - | - | - |
| 1777557763 | 13.89° C | 28% | 1029.5 hPa | - | - | - | - |
| 1777557163 | 13.89° C | 28% | 1029.5 hPa | - | - | - | - |
| 1777556563 | 13.33° C | 27% | 1029.5 hPa | - | - | - | - |
| 1777554163 | 12.78° C | 30% | 1029.8 hPa | - | - | - | - |
| 1777553562 | 13.33° C | 31% | 1029.9 hPa | - | - | - | - |
| 1777552962 | 12.22° C | 32% | 1030.1 hPa | - | - | - | - |
| 1777552362 | 12.22° C | 31% | 1030.3 hPa | - | - | - | - |
| 1777550562 | 13.33° C | 30% | 1030.8 hPa | - | - | - | - |
| 1777549962 | 12.78° C | 32% | 1030.9 hPa | - | - | - | - |
| 1777549362 | 12.22° C | 32% | 1031 hPa | - | - | - | - |
| 1777547561 | 12.22° C | 35% | 1031.2 hPa | - | - | - | - |
| 1777546961 | 11.67° C | 34% | 1031.4 hPa | - | - | - | - |
| 1777546361 | 11.11° C | 36% | 1031.6 hPa | - | - | - | - |
| 1777544561 | 11.11° C | 36% | 1031.9 hPa | - | - | - | - |
| 1777543961 | 11.11° C | 37% | 1032.1 hPa | - | - | - | - |
| 1777543361 | 10° C | 37% | 1032.2 hPa | - | - | - | - |
| 1777541561 | 9.44° C | 39% | 1032.3 hPa | - | - | - | - |
| 1777540961 | 10° C | 38% | 1032.3 hPa | - | - | - | - |
| 1777540361 | 10.56° C | 36% | 1032.4 hPa | - | - | - | - |
| 1777538560 | 8.89° C | 38% | 1032.7 hPa | - | - | - | - |
| 1777537961 | 8.33° C | 40% | 1032.8 hPa | - | - | - | - |
| 1777537360 | 8.89° C | 38% | 1032.9 hPa | - | - | - | - |
| 1777535560 | 7.78° C | 43% | 1033.1 hPa | - | - | - | - |
* Rain since midnight (hover to see other rain measurements)
** Current wind speed in m/s (hover to see current wind gust speed)